sensor_id;sensor_type;location;lat;lon;timestamp;temperature;humidity
66726;HTU21D;53638;51.062;5.804;2024-02-23T00:00:11;5.12;118.99
66726;HTU21D;53638;51.062;5.804;2024-02-23T00:02:38;5.08;118.99
66726;HTU21D;53638;51.062;5.804;2024-02-23T00:05:29;5.08;118.99
66726;HTU21D;53638;51.062;5.804;2024-02-23T00:07:55;5.10;118.99
66726;HTU21D;53638;51.062;5.804;2024-02-23T00:10:25;5.06;118.99
66726;HTU21D;53638;51.062;5.804;2024-02-23T00:12:56;5.09;118.99
66726;HTU21D;53638;51.062;5.804;2024-02-23T00:15:27;5.16;118.99
66726;HTU21D;53638;51.062;5.804;2024-02-23T00:17:52;5.15;118.99
66726;HTU21D;53638;51.062;5.804;2024-02-23T00:20:18;5.10;118.99
66726;HTU21D;53638;51.062;5.804;2024-02-23T00:22:44;5.10;118.99
66726;HTU21D;53638;51.062;5.804;2024-02-23T00:25:10;5.12;118.99
66726;HTU21D;53638;51.062;5.804;2024-02-23T00:27:36;5.17;118.99
66726;HTU21D;53638;51.062;5.804;2024-02-23T00:30:23;5.19;118.99
66726;HTU21D;53638;51.062;5.804;2024-02-23T00:32:48;5.18;118.99
66726;HTU21D;53638;51.062;5.804;2024-02-23T00:35:18;5.17;118.99
66726;HTU21D;53638;51.062;5.804;2024-02-23T00:37:44;5.19;118.99
66726;HTU21D;53638;51.062;5.804;2024-02-23T00:40:23;5.17;118.99
66726;HTU21D;53638;51.062;5.804;2024-02-23T00:42:51;5.11;118.99
66726;HTU21D;53638;51.062;5.804;2024-02-23T00:45:17;5.10;118.99
66726;HTU21D;53638;51.062;5.804;2024-02-23T00:47:47;5.22;118.99
66726;HTU21D;53638;51.062;5.804;2024-02-23T00:50:13;5.22;118.99
66726;HTU21D;53638;51.062;5.804;2024-02-23T00:52:40;5.11;118.99
66726;HTU21D;53638;51.062;5.804;2024-02-23T00:55:07;5.11;118.99
66726;HTU21D;53638;51.062;5.804;2024-02-23T00:57:39;5.12;118.99
66726;HTU21D;53638;51.062;5.804;2024-02-23T01:00:06;5.13;118.99
66726;HTU21D;53638;51.062;5.804;2024-02-23T01:02:32;5.15;118.99
66726;HTU21D;53638;51.062;5.804;2024-02-23T01:04:58;5.13;118.99
66726;HTU21D;53638;51.062;5.804;2024-02-23T01:07:25;5.10;118.99
66726;HTU21D;53638;51.062;5.804;2024-02-23T01:09:51;5.05;118.99
66726;HTU21D;53638;51.062;5.804;2024-02-23T01:12:17;5.11;118.99
66726;HTU21D;53638;51.062;5.804;2024-02-23T01:14:43;5.13;118.99
66726;HTU21D;53638;51.062;5.804;2024-02-23T01:17:09;5.11;118.99
66726;HTU21D;53638;51.062;5.804;2024-02-23T01:19:34;5.03;118.99
66726;HTU21D;53638;51.062;5.804;2024-02-23T01:22:00;5.00;118.99
66726;HTU21D;53638;51.062;5.804;2024-02-23T01:24:27;5.10;118.99
66726;HTU21D;53638;51.062;5.804;2024-02-23T01:26:56;5.16;118.99
66726;HTU21D;53638;51.062;5.804;2024-02-23T01:29:48;5.13;118.99
66726;HTU21D;53638;51.062;5.804;2024-02-23T01:32:14;5.09;118.99
66726;HTU21D;53638;51.062;5.804;2024-02-23T01:34:39;5.11;118.99
66726;HTU21D;53638;51.062;5.804;2024-02-23T01:37:05;5.08;118.99
66726;HTU21D;53638;51.062;5.804;2024-02-23T01:39:31;5.07;118.99
66726;HTU21D;53638;51.062;5.804;2024-02-23T01:41:57;5.06;118.99
66726;HTU21D;53638;51.062;5.804;2024-02-23T01:44:24;5.11;118.99
66726;HTU21D;53638;51.062;5.804;2024-02-23T01:46:50;5.04;118.99
66726;HTU21D;53638;51.062;5.804;2024-02-23T01:49:17;5.08;118.99
66726;HTU21D;53638;51.062;5.804;2024-02-23T01:51:44;5.06;118.99
66726;HTU21D;53638;51.062;5.804;2024-02-23T01:54:10;5.09;118.99
66726;HTU21D;53638;51.062;5.804;2024-02-23T01:56:37;5.04;118.99
66726;HTU21D;53638;51.062;5.804;2024-02-23T01:59:06;5.07;118.99
66726;HTU21D;53638;51.062;5.804;2024-02-23T02:01:32;5.17;118.99
66726;HTU21D;53638;51.062;5.804;2024-02-23T02:03:59;5.23;118.99
66726;HTU21D;53638;51.062;5.804;2024-02-23T02:06:24;5.22;118.99
66726;HTU21D;53638;51.062;5.804;2024-02-23T02:08:51;5.15;118.99
66726;HTU21D;53638;51.062;5.804;2024-02-23T02:11:17;5.13;118.99
66726;HTU21D;53638;51.062;5.804;2024-02-23T02:13:43;5.19;118.99
66726;HTU21D;53638;51.062;5.804;2024-02-23T02:16:26;5.22;118.99
66726;HTU21D;53638;51.062;5.804;2024-02-23T02:18:53;5.15;118.99
66726;HTU21D;53638;51.062;5.804;2024-02-23T02:21:18;5.19;118.99
66726;HTU21D;53638;51.062;5.804;2024-02-23T02:23:49;5.15;118.99
66726;HTU21D;53638;51.062;5.804;2024-02-23T02:26:15;5.15;118.99
66726;HTU21D;53638;51.062;5.804;2024-02-23T02:28:41;5.19;118.99
66726;HTU21D;53638;51.062;5.804;2024-02-23T02:31:07;5.16;118.99
66726;HTU21D;53638;51.062;5.804;2024-02-23T02:33:32;5.33;118.99
66726;HTU21D;53638;51.062;5.804;2024-02-23T02:35:58;5.34;118.99
66726;HTU21D;53638;51.062;5.804;2024-02-23T02:38:28;5.34;118.99
66726;HTU21D;53638;51.062;5.804;2024-02-23T02:40:54;5.31;118.99
66726;HTU21D;53638;51.062;5.804;2024-02-23T02:43:20;5.30;118.99
66726;HTU21D;53638;51.062;5.804;2024-02-23T02:45:46;5.31;118.99
66726;HTU21D;53638;51.062;5.804;2024-02-23T02:48:12;5.10;118.99
66726;HTU21D;53638;51.062;5.804;2024-02-23T02:50:39;5.21;118.99
66726;HTU21D;53638;51.062;5.804;2024-02-23T02:53:05;5.27;118.99
66726;HTU21D;53638;51.062;5.804;2024-02-23T02:55:31;5.25;118.99
66726;HTU21D;53638;51.062;5.804;2024-02-23T02:57:59;5.36;118.99
66726;HTU21D;53638;51.062;5.804;2024-02-23T03:00:25;5.36;118.99
66726;HTU21D;53638;51.062;5.804;2024-02-23T03:02:51;5.51;118.99
66726;HTU21D;53638;51.062;5.804;2024-02-23T03:05:17;5.54;118.99
66726;HTU21D;53638;51.062;5.804;2024-02-23T03:07:43;5.63;118.99
66726;HTU21D;53638;51.062;5.804;2024-02-23T03:10:09;5.49;118.99
66726;HTU21D;53638;51.062;5.804;2024-02-23T03:12:35;5.43;118.99
66726;HTU21D;53638;51.062;5.804;2024-02-23T03:15:01;5.43;118.99
66726;HTU21D;53638;51.062;5.804;2024-02-23T03:17:48;5.41;118.99
66726;HTU21D;53638;51.062;5.804;2024-02-23T03:20:40;5.38;118.99
66726;HTU21D;53638;51.062;5.804;2024-02-23T03:23:07;5.37;118.99
66726;HTU21D;53638;51.062;5.804;2024-02-23T03:25:33;5.52;118.99
66726;HTU21D;53638;51.062;5.804;2024-02-23T03:27:59;5.47;118.99
66726;HTU21D;53638;51.062;5.804;2024-02-23T03:30:25;5.51;118.99
66726;HTU21D;53638;51.062;5.804;2024-02-23T03:32:51;5.54;118.99
66726;HTU21D;53638;51.062;5.804;2024-02-23T03:35:17;5.53;118.99
66726;HTU21D;53638;51.062;5.804;2024-02-23T03:37:51;5.62;118.99
66726;HTU21D;53638;51.062;5.804;2024-02-23T03:40:17;5.68;118.99
66726;HTU21D;53638;51.062;5.804;2024-02-23T03:42:44;5.67;118.99
66726;HTU21D;53638;51.062;5.804;2024-02-23T03:45:19;5.67;118.99
66726;HTU21D;53638;51.062;5.804;2024-02-23T03:47:45;5.70;118.99
66726;HTU21D;53638;51.062;5.804;2024-02-23T03:50:11;5.78;118.99
66726;HTU21D;53638;51.062;5.804;2024-02-23T03:52:37;5.77;118.99
66726;HTU21D;53638;51.062;5.804;2024-02-23T03:55:03;5.64;118.99
66726;HTU21D;53638;51.062;5.804;2024-02-23T03:57:29;5.75;118.99
66726;HTU21D;53638;51.062;5.804;2024-02-23T03:59:58;5.79;118.99
66726;HTU21D;53638;51.062;5.804;2024-02-23T04:02:24;5.82;118.99
66726;HTU21D;53638;51.062;5.804;2024-02-23T04:04:50;5.81;118.99
66726;HTU21D;53638;51.062;5.804;2024-02-23T04:07:16;5.82;118.99
66726;HTU21D;53638;51.062;5.804;2024-02-23T04:09:42;5.76;118.99
66726;HTU21D;53638;51.062;5.804;2024-02-23T04:12:08;5.83;118.99
66726;HTU21D;53638;51.062;5.804;2024-02-23T04:14:34;5.81;118.99
66726;HTU21D;53638;51.062;5.804;2024-02-23T04:17:03;5.75;118.99
66726;HTU21D;53638;51.062;5.804;2024-02-23T04:19:29;5.67;118.99
66726;HTU21D;53638;51.062;5.804;2024-02-23T04:21:55;5.80;118.99
66726;HTU21D;53638;51.062;5.804;2024-02-23T04:24:21;5.72;118.99
66726;HTU21D;53638;51.062;5.804;2024-02-23T04:26:47;5.67;118.99
66726;HTU21D;53638;51.062;5.804;2024-02-23T04:29:12;5.80;118.99
66726;HTU21D;53638;51.062;5.804;2024-02-23T04:31:38;5.64;118.99
66726;HTU21D;53638;51.062;5.804;2024-02-23T04:34:04;5.59;91.38
66726;HTU21D;53638;51.062;5.804;2024-02-23T04:36:30;5.65;82.08
66726;HTU21D;53638;51.062;5.804;2024-02-23T04:38:56;5.65;48.18
66726;HTU21D;53638;51.062;5.804;2024-02-23T04:41:22;5.67;38.40
66726;HTU21D;53638;51.062;5.804;2024-02-23T04:43:48;5.87;55.82
66726;HTU21D;53638;51.062;5.804;2024-02-23T04:46:14;5.97;56.87
66726;HTU21D;53638;51.062;5.804;2024-02-23T04:48:41;5.95;53.99
66726;HTU21D;53638;51.062;5.804;2024-02-23T04:51:07;5.97;34.52
66726;HTU21D;53638;51.062;5.804;2024-02-23T04:53:37;6.04;35.44
66726;HTU21D;53638;51.062;5.804;2024-02-23T04:56:05;5.95;-2.96
66726;HTU21D;53638;51.062;5.804;2024-02-23T04:58:31;5.98;-6.00
66726;HTU21D;53638;51.062;5.804;2024-02-23T05:01:18;6.08;-6.00
66726;HTU21D;53638;51.062;5.804;2024-02-23T05:03:44;6.13;-6.00
66726;HTU21D;53638;51.062;5.804;2024-02-23T05:06:10;6.13;-6.00
66726;HTU21D;53638;51.062;5.804;2024-02-23T05:08:39;6.10;-6.00
66726;HTU21D;53638;51.062;5.804;2024-02-23T05:11:14;6.10;-6.00
66726;HTU21D;53638;51.062;5.804;2024-02-23T05:13:43;6.10;-6.00
66726;HTU21D;53638;51.062;5.804;2024-02-23T05:16:09;6.15;-6.00
66726;HTU21D;53638;51.062;5.804;2024-02-23T05:18:35;6.20;-6.00
66726;HTU21D;53638;51.062;5.804;2024-02-23T05:21:01;6.10;-6.00
66726;HTU21D;53638;51.062;5.804;2024-02-23T05:23:27;6.22;-6.00
66726;HTU21D;53638;51.062;5.804;2024-02-23T05:25:53;6.26;-6.00
66726;HTU21D;53638;51.062;5.804;2024-02-23T05:28:19;6.29;-6.00
66726;HTU21D;53638;51.062;5.804;2024-02-23T05:30:45;6.28;-6.00
66726;HTU21D;53638;51.062;5.804;2024-02-23T05:33:11;6.31;-6.00
66726;HTU21D;53638;51.062;5.804;2024-02-23T05:35:37;6.38;-6.00
66726;HTU21D;53638;51.062;5.804;2024-02-23T05:38:05;6.39;-6.00
66726;HTU21D;53638;51.062;5.804;2024-02-23T05:40:32;6.39;-6.00
66726;HTU21D;53638;51.062;5.804;2024-02-23T05:42:59;6.41;-6.00
66726;HTU21D;53638;51.062;5.804;2024-02-23T05:45:25;6.46;-6.00
66726;HTU21D;53638;51.062;5.804;2024-02-23T05:47:51;6.45;-6.00
66726;HTU21D;53638;51.062;5.804;2024-02-23T05:50:21;6.49;-6.00
66726;HTU21D;53638;51.062;5.804;2024-02-23T05:52:47;6.50;-6.00
66726;HTU21D;53638;51.062;5.804;2024-02-23T05:55:13;6.54;-6.00
66726;HTU21D;53638;51.062;5.804;2024-02-23T05:57:41;6.52;-6.00
66726;HTU21D;53638;51.062;5.804;2024-02-23T06:00:08;6.55;-6.00
66726;HTU21D;53638;51.062;5.804;2024-02-23T06:02:42;6.56;-6.00
66726;HTU21D;53638;51.062;5.804;2024-02-23T06:05:09;6.60;-6.00
66726;HTU21D;53638;51.062;5.804;2024-02-23T06:07:35;6.63;-6.00
66726;HTU21D;53638;51.062;5.804;2024-02-23T06:10:02;6.61;-6.00
66726;HTU21D;53638;51.062;5.804;2024-02-23T06:12:28;6.60;-6.00
66726;HTU21D;53638;51.062;5.804;2024-02-23T06:14:56;6.60;-6.00
66726;HTU21D;53638;51.062;5.804;2024-02-23T06:17:34;6.64;-6.00
66726;HTU21D;53638;51.062;5.804;2024-02-23T06:20:01;6.59;-6.00
66726;HTU21D;53638;51.062;5.804;2024-02-23T06:22:28;6.63;-6.00
66726;HTU21D;53638;51.062;5.804;2024-02-23T06:25:03;6.67;-6.00
66726;HTU21D;53638;51.062;5.804;2024-02-23T06:27:29;6.67;-6.00
66726;HTU21D;53638;51.062;5.804;2024-02-23T06:29:55;6.68;-6.00
66726;HTU21D;53638;51.062;5.804;2024-02-23T06:32:21;6.68;-6.00
66726;HTU21D;53638;51.062;5.804;2024-02-23T06:34:47;6.66;-6.00
66726;HTU21D;53638;51.062;5.804;2024-02-23T06:37:16;6.70;-6.00
66726;HTU21D;53638;51.062;5.804;2024-02-23T06:39:42;6.70;-6.00
66726;HTU21D;53638;51.062;5.804;2024-02-23T06:42:08;6.65;-6.00
66726;HTU21D;53638;51.062;5.804;2024-02-23T06:44:59;6.68;-6.00
66726;HTU21D;53638;51.062;5.804;2024-02-23T06:47:26;6.65;-6.00
66726;HTU21D;53638;51.062;5.804;2024-02-23T06:49:53;6.68;-6.00
66726;HTU21D;53638;51.062;5.804;2024-02-23T06:52:20;6.68;-6.00
66726;HTU21D;53638;51.062;5.804;2024-02-23T06:54:46;6.67;-6.00
66726;HTU21D;53638;51.062;5.804;2024-02-23T06:57:12;6.72;-6.00
66726;HTU21D;53638;51.062;5.804;2024-02-23T06:59:38;6.68;-6.00
66726;HTU21D;53638;51.062;5.804;2024-02-23T07:02:04;6.71;-6.00
66726;HTU21D;53638;51.062;5.804;2024-02-23T07:04:34;6.71;-6.00
66726;HTU21D;53638;51.062;5.804;2024-02-23T07:07:00;6.68;-6.00
66726;HTU21D;53638;51.062;5.804;2024-02-23T07:09:32;6.74;-6.00
66726;HTU21D;53638;51.062;5.804;2024-02-23T07:11:58;6.73;-6.00
66726;HTU21D;53638;51.062;5.804;2024-02-23T07:14:26;6.68;-6.00
66726;HTU21D;53638;51.062;5.804;2024-02-23T07:16:55;6.72;-6.00
66726;HTU21D;53638;51.062;5.804;2024-02-23T07:19:23;6.71;-6.00
66726;HTU21D;53638;51.062;5.804;2024-02-23T07:22:18;6.71;-6.00
66726;HTU21D;53638;51.062;5.804;2024-02-23T07:25:09;6.63;-6.00
66726;HTU21D;53638;51.062;5.804;2024-02-23T07:27:36;6.57;-6.00
66726;HTU21D;53638;51.062;5.804;2024-02-23T07:30:05;6.56;-6.00
66726;HTU21D;53638;51.062;5.804;2024-02-23T07:32:34;6.50;-6.00
66726;HTU21D;53638;51.062;5.804;2024-02-23T07:35:00;6.52;-6.00
66726;HTU21D;53638;51.062;5.804;2024-02-23T07:37:32;6.46;-6.00
66726;HTU21D;53638;51.062;5.804;2024-02-23T07:39:58;6.49;-6.00
66726;HTU21D;53638;51.062;5.804;2024-02-23T07:42:24;6.51;-6.00
66726;HTU21D;53638;51.062;5.804;2024-02-23T07:44:50;6.55;-6.00
66726;HTU21D;53638;51.062;5.804;2024-02-23T07:47:16;6.56;-6.00
66726;HTU21D;53638;51.062;5.804;2024-02-23T07:49:42;6.57;-6.00
66726;HTU21D;53638;51.062;5.804;2024-02-23T07:52:09;6.59;-6.00
66726;HTU21D;53638;51.062;5.804;2024-02-23T07:54:35;6.63;-6.00
66726;HTU21D;53638;51.062;5.804;2024-02-23T07:57:00;6.64;-6.00
66726;HTU21D;53638;51.062;5.804;2024-02-23T07:59:35;6.68;-6.00
66726;HTU21D;53638;51.062;5.804;2024-02-23T08:02:01;6.74;-6.00
66726;HTU21D;53638;51.062;5.804;2024-02-23T08:04:27;6.86;-6.00
66726;HTU21D;53638;51.062;5.804;2024-02-23T08:07:13;6.95;-6.00
66726;HTU21D;53638;51.062;5.804;2024-02-23T08:09:40;7.03;-6.00
66726;HTU21D;53638;51.062;5.804;2024-02-23T08:12:06;7.10;-6.00
66726;HTU21D;53638;51.062;5.804;2024-02-23T08:14:32;7.08;-6.00
66726;HTU21D;53638;51.062;5.804;2024-02-23T08:16:58;7.14;-6.00
66726;HTU21D;53638;51.062;5.804;2024-02-23T08:19:25;7.22;-6.00
66726;HTU21D;53638;51.062;5.804;2024-02-23T08:21:51;7.31;-6.00
66726;HTU21D;53638;51.062;5.804;2024-02-23T08:24:17;7.35;-6.00
66726;HTU21D;53638;51.062;5.804;2024-02-23T08:26:43;7.38;-6.00
66726;HTU21D;53638;51.062;5.804;2024-02-23T08:29:09;7.43;-6.00
66726;HTU21D;53638;51.062;5.804;2024-02-23T08:32:00;7.46;-6.00
66726;HTU21D;53638;51.062;5.804;2024-02-23T08:34:27;7.48;-6.00
66726;HTU21D;53638;51.062;5.804;2024-02-23T08:36:53;7.54;-6.00
66726;HTU21D;53638;51.062;5.804;2024-02-23T08:39:18;7.53;-6.00
66726;HTU21D;53638;51.062;5.804;2024-02-23T08:41:47;7.55;-6.00
66726;HTU21D;53638;51.062;5.804;2024-02-23T08:44:16;7.56;-6.00
66726;HTU21D;53638;51.062;5.804;2024-02-23T08:46:52;7.59;-6.00
66726;HTU21D;53638;51.062;5.804;2024-02-23T08:49:18;7.65;-6.00
66726;HTU21D;53638;51.062;5.804;2024-02-23T08:51:46;7.75;-6.00
66726;HTU21D;53638;51.062;5.804;2024-02-23T08:54:15;7.84;-6.00
66726;HTU21D;53638;51.062;5.804;2024-02-23T08:56:41;7.94;-6.00
66726;HTU21D;53638;51.062;5.804;2024-02-23T08:59:08;8.05;-6.00
66726;HTU21D;53638;51.062;5.804;2024-02-23T09:01:35;8.17;-6.00
66726;HTU21D;53638;51.062;5.804;2024-02-23T09:04:01;8.21;-6.00
66726;HTU21D;53638;51.062;5.804;2024-02-23T09:06:31;8.29;-6.00
66726;HTU21D;53638;51.062;5.804;2024-02-23T09:08:58;8.34;-6.00
66726;HTU21D;53638;51.062;5.804;2024-02-23T09:11:27;8.44;-6.00
66726;HTU21D;53638;51.062;5.804;2024-02-23T09:13:53;8.44;-6.00
66726;HTU21D;53638;51.062;5.804;2024-02-23T09:16:19;8.48;-6.00
66726;HTU21D;53638;51.062;5.804;2024-02-23T09:18:46;8.47;-6.00
66726;HTU21D;53638;51.062;5.804;2024-02-23T09:21:12;8.48;-6.00
66726;HTU21D;53638;51.062;5.804;2024-02-23T09:23:38;8.53;-6.00
66726;HTU21D;53638;51.062;5.804;2024-02-23T09:26:09;8.53;-6.00
66726;HTU21D;53638;51.062;5.804;2024-02-23T09:28:47;8.50;-6.00
66726;HTU21D;53638;51.062;5.804;2024-02-23T09:31:13;8.46;-6.00
66726;HTU21D;53638;51.062;5.804;2024-02-23T09:33:39;8.45;-6.00
66726;HTU21D;53638;51.062;5.804;2024-02-23T09:36:05;8.34;-6.00
66726;HTU21D;53638;51.062;5.804;2024-02-23T09:38:31;8.43;-6.00
66726;HTU21D;53638;51.062;5.804;2024-02-23T09:40:58;8.52;-6.00
66726;HTU21D;53638;51.062;5.804;2024-02-23T09:43:29;8.65;-6.00
66726;HTU21D;53638;51.062;5.804;2024-02-23T09:45:56;8.77;-6.00
66726;HTU21D;53638;51.062;5.804;2024-02-23T09:48:23;8.78;-6.00
66726;HTU21D;53638;51.062;5.804;2024-02-23T09:50:52;8.67;-6.00
66726;HTU21D;53638;51.062;5.804;2024-02-23T09:53:19;8.60;-6.00
66726;HTU21D;53638;51.062;5.804;2024-02-23T09:55:47;8.66;-6.00
66726;HTU21D;53638;51.062;5.804;2024-02-23T09:58:17;8.71;-6.00
66726;HTU21D;53638;51.062;5.804;2024-02-23T10:00:43;8.71;-6.00
66726;HTU21D;53638;51.062;5.804;2024-02-23T10:03:09;8.78;-6.00
66726;HTU21D;53638;51.062;5.804;2024-02-23T10:05:35;8.90;-6.00
66726;HTU21D;53638;51.062;5.804;2024-02-23T10:08:01;9.02;-6.00
66726;HTU21D;53638;51.062;5.804;2024-02-23T10:10:33;9.01;-6.00
66726;HTU21D;53638;51.062;5.804;2024-02-23T10:13:00;9.06;-6.00
66726;HTU21D;53638;51.062;5.804;2024-02-23T10:15:29;9.04;-6.00
66726;HTU21D;53638;51.062;5.804;2024-02-23T10:17:55;9.03;-6.00
66726;HTU21D;53638;51.062;5.804;2024-02-23T10:20:21;9.19;-6.00
66726;HTU21D;53638;51.062;5.804;2024-02-23T10:22:47;9.30;-6.00
66726;HTU21D;53638;51.062;5.804;2024-02-23T10:25:13;9.26;-6.00
66726;HTU21D;53638;51.062;5.804;2024-02-23T10:27:41;9.37;-6.00
66726;HTU21D;53638;51.062;5.804;2024-02-23T10:30:09;9.29;-6.00
66726;HTU21D;53638;51.062;5.804;2024-02-23T10:32:38;9.31;-6.00
66726;HTU21D;53638;51.062;5.804;2024-02-23T10:35:11;9.09;-6.00
66726;HTU21D;53638;51.062;5.804;2024-02-23T10:37:43;8.98;-6.00
66726;HTU21D;53638;51.062;5.804;2024-02-23T10:40:39;9.22;-6.00
66726;HTU21D;53638;51.062;5.804;2024-02-23T10:43:14;9.26;-6.00
66726;HTU21D;53638;51.062;5.804;2024-02-23T10:45:43;9.16;-6.00
66726;HTU21D;53638;51.062;5.804;2024-02-23T10:48:09;9.12;-6.00
66726;HTU21D;53638;51.062;5.804;2024-02-23T10:50:36;8.92;-6.00
66726;HTU21D;53638;51.062;5.804;2024-02-23T10:53:07;8.86;-6.00
66726;HTU21D;53638;51.062;5.804;2024-02-23T10:55:37;8.80;-6.00
66726;HTU21D;53638;51.062;5.804;2024-02-23T10:58:06;8.83;-6.00
66726;HTU21D;53638;51.062;5.804;2024-02-23T11:00:37;8.65;-6.00
66726;HTU21D;53638;51.062;5.804;2024-02-23T11:03:05;8.65;-6.00
66726;HTU21D;53638;51.062;5.804;2024-02-23T11:05:33;8.61;-6.00
66726;HTU21D;53638;51.062;5.804;2024-02-23T11:07:59;8.60;-6.00
66726;HTU21D;53638;51.062;5.804;2024-02-23T11:10:25;8.57;-6.00
66726;HTU21D;53638;51.062;5.804;2024-02-23T11:12:58;8.81;-6.00
66726;HTU21D;53638;51.062;5.804;2024-02-23T11:15:27;8.98;-6.00
66726;HTU21D;53638;51.062;5.804;2024-02-23T11:17:54;9.14;-6.00
66726;HTU21D;53638;51.062;5.804;2024-02-23T11:20:23;9.05;-6.00
66726;HTU21D;53638;51.062;5.804;2024-02-23T11:22:52;9.06;-6.00
66726;HTU21D;53638;51.062;5.804;2024-02-23T11:25:20;9.06;-6.00
66726;HTU21D;53638;51.062;5.804;2024-02-23T11:27:49;9.07;-6.00
66726;HTU21D;53638;51.062;5.804;2024-02-23T11:30:17;9.09;-6.00
66726;HTU21D;53638;51.062;5.804;2024-02-23T11:32:45;9.02;-6.00
66726;HTU21D;53638;51.062;5.804;2024-02-23T11:35:14;9.04;-6.00
66726;HTU21D;53638;51.062;5.804;2024-02-23T11:37:49;8.90;-6.00
66726;HTU21D;53638;51.062;5.804;2024-02-23T11:40:22;9.04;-6.00
66726;HTU21D;53638;51.062;5.804;2024-02-23T11:42:50;8.91;-6.00
66726;HTU21D;53638;51.062;5.804;2024-02-23T11:45:21;9.08;-6.00
66726;HTU21D;53638;51.062;5.804;2024-02-23T11:47:48;8.96;-6.00
66726;HTU21D;53638;51.062;5.804;2024-02-23T11:50:14;9.04;-6.00
66726;HTU21D;53638;51.062;5.804;2024-02-23T11:52:42;9.01;-6.00
66726;HTU21D;53638;51.062;5.804;2024-02-23T11:55:08;9.02;-6.00
66726;HTU21D;53638;51.062;5.804;2024-02-23T11:57:34;9.08;-6.00
66726;HTU21D;53638;51.062;5.804;2024-02-23T12:00:02;9.22;-6.00
66726;HTU21D;53638;51.062;5.804;2024-02-23T12:02:31;9.21;-6.00
66726;HTU21D;53638;51.062;5.804;2024-02-23T12:04:56;9.07;-6.00
66726;HTU21D;53638;51.062;5.804;2024-02-23T12:07:22;9.16;-6.00
66726;HTU21D;53638;51.062;5.804;2024-02-23T12:09:48;9.24;-6.00
66726;HTU21D;53638;51.062;5.804;2024-02-23T12:12:18;9.42;-6.00
66726;HTU21D;53638;51.062;5.804;2024-02-23T12:14:44;9.22;-6.00
66726;HTU21D;53638;51.062;5.804;2024-02-23T12:17:10;9.30;-6.00
66726;HTU21D;53638;51.062;5.804;2024-02-23T12:19:38;9.37;-6.00
66726;HTU21D;53638;51.062;5.804;2024-02-23T12:22:10;9.26;-6.00
66726;HTU21D;53638;51.062;5.804;2024-02-23T12:24:38;9.26;-6.00
66726;HTU21D;53638;51.062;5.804;2024-02-23T12:27:06;9.31;-6.00
66726;HTU21D;53638;51.062;5.804;2024-02-23T12:29:32;9.32;-6.00
66726;HTU21D;53638;51.062;5.804;2024-02-23T12:32:03;9.38;-6.00
66726;HTU21D;53638;51.062;5.804;2024-02-23T12:34:30;9.41;-6.00
66726;HTU21D;53638;51.062;5.804;2024-02-23T12:36:55;9.53;-6.00
66726;HTU21D;53638;51.062;5.804;2024-02-23T12:39:21;9.68;-6.00
66726;HTU21D;53638;51.062;5.804;2024-02-23T12:41:47;9.62;-6.00
66726;HTU21D;53638;51.062;5.804;2024-02-23T12:44:13;9.70;-6.00
66726;HTU21D;53638;51.062;5.804;2024-02-23T12:46:40;9.71;-6.00
66726;HTU21D;53638;51.062;5.804;2024-02-23T12:49:06;9.79;-6.00
66726;HTU21D;53638;51.062;5.804;2024-02-23T12:51:32;9.83;-6.00
66726;HTU21D;53638;51.062;5.804;2024-02-23T12:53:59;10.01;-6.00
66726;HTU21D;53638;51.062;5.804;2024-02-23T12:56:25;10.34;-6.00
66726;HTU21D;53638;51.062;5.804;2024-02-23T12:58:51;10.57;-6.00
66726;HTU21D;53638;51.062;5.804;2024-02-23T13:01:19;10.70;-6.00
66726;HTU21D;53638;51.062;5.804;2024-02-23T13:03:45;10.84;-6.00
66726;HTU21D;53638;51.062;5.804;2024-02-23T13:06:11;10.54;-6.00
66726;HTU21D;53638;51.062;5.804;2024-02-23T13:08:38;10.23;-6.00
66726;HTU21D;53638;51.062;5.804;2024-02-23T13:11:06;10.22;-6.00
66726;HTU21D;53638;51.062;5.804;2024-02-23T13:13:32;10.67;-6.00
66726;HTU21D;53638;51.062;5.804;2024-02-23T13:15:58;11.63;-6.00
66726;HTU21D;53638;51.062;5.804;2024-02-23T13:18:25;11.10;-6.00
66726;HTU21D;53638;51.062;5.804;2024-02-23T13:20:57;10.81;-6.00
66726;HTU21D;53638;51.062;5.804;2024-02-23T13:23:23;10.80;-6.00
66726;HTU21D;53638;51.062;5.804;2024-02-23T13:25:50;10.71;-6.00
66726;HTU21D;53638;51.062;5.804;2024-02-23T13:28:16;10.64;-6.00
66726;HTU21D;53638;51.062;5.804;2024-02-23T13:30:42;11.12;-6.00
66726;HTU21D;53638;51.062;5.804;2024-02-23T13:33:08;11.43;-6.00
66726;HTU21D;53638;51.062;5.804;2024-02-23T13:35:39;11.73;-6.00
66726;HTU21D;53638;51.062;5.804;2024-02-23T13:38:05;12.07;-6.00
66726;HTU21D;53638;51.062;5.804;2024-02-23T13:40:32;12.94;-6.00
66726;HTU21D;53638;51.062;5.804;2024-02-23T13:42:58;12.58;-6.00
66726;HTU21D;53638;51.062;5.804;2024-02-23T13:45:25;11.62;-6.00
66726;HTU21D;53638;51.062;5.804;2024-02-23T13:47:57;11.05;-6.00
66726;HTU21D;53638;51.062;5.804;2024-02-23T13:50:24;10.67;-6.00
66726;HTU21D;53638;51.062;5.804;2024-02-23T13:52:51;10.45;-6.00
66726;HTU21D;53638;51.062;5.804;2024-02-23T13:55:24;10.53;-6.00
66726;HTU21D;53638;51.062;5.804;2024-02-23T13:58:15;10.65;-6.00
66726;HTU21D;53638;51.062;5.804;2024-02-23T14:00:41;10.59;-6.00
66726;HTU21D;53638;51.062;5.804;2024-02-23T14:03:07;10.39;-6.00
66726;HTU21D;53638;51.062;5.804;2024-02-23T14:05:33;10.41;-6.00
66726;HTU21D;53638;51.062;5.804;2024-02-23T14:08:03;10.34;-6.00
66726;HTU21D;53638;51.062;5.804;2024-02-23T14:10:35;10.27;-6.00
66726;HTU21D;53638;51.062;5.804;2024-02-23T14:13:05;10.18;-6.00
66726;HTU21D;53638;51.062;5.804;2024-02-23T14:15:37;10.10;-6.00
66726;HTU21D;53638;51.062;5.804;2024-02-23T14:18:06;10.09;-6.00
66726;HTU21D;53638;51.062;5.804;2024-02-23T14:20:34;10.20;-6.00
66726;HTU21D;53638;51.062;5.804;2024-02-23T14:23:01;10.28;-6.00
66726;HTU21D;53638;51.062;5.804;2024-02-23T14:25:27;10.50;-6.00
66726;HTU21D;53638;51.062;5.804;2024-02-23T14:27:53;10.92;-6.00
66726;HTU21D;53638;51.062;5.804;2024-02-23T14:30:21;10.69;-6.00
66726;HTU21D;53638;51.062;5.804;2024-02-23T14:32:47;10.56;-6.00
66726;HTU21D;53638;51.062;5.804;2024-02-23T14:35:13;10.53;-6.00
66726;HTU21D;53638;51.062;5.804;2024-02-23T14:37:39;10.28;-6.00
66726;HTU21D;53638;51.062;5.804;2024-02-23T14:40:06;10.39;-6.00
66726;HTU21D;53638;51.062;5.804;2024-02-23T14:42:32;10.38;-6.00
66726;HTU21D;53638;51.062;5.804;2024-02-23T14:44:58;10.46;-6.00
66726;HTU21D;53638;51.062;5.804;2024-02-23T14:47:24;10.38;-6.00
66726;HTU21D;53638;51.062;5.804;2024-02-23T14:49:49;10.37;-6.00
66726;HTU21D;53638;51.062;5.804;2024-02-23T14:52:16;10.27;-6.00
66726;HTU21D;53638;51.062;5.804;2024-02-23T14:54:41;10.19;-6.00
66726;HTU21D;53638;51.062;5.804;2024-02-23T14:57:07;10.15;-6.00
66726;HTU21D;53638;51.062;5.804;2024-02-23T14:59:33;10.14;-6.00
66726;HTU21D;53638;51.062;5.804;2024-02-23T15:02:02;10.28;-6.00
66726;HTU21D;53638;51.062;5.804;2024-02-23T15:04:28;10.21;-6.00
66726;HTU21D;53638;51.062;5.804;2024-02-23T15:06:54;9.90;-6.00
66726;HTU21D;53638;51.062;5.804;2024-02-23T15:09:20;10.04;-6.00
66726;HTU21D;53638;51.062;5.804;2024-02-23T15:11:46;10.04;-6.00
66726;HTU21D;53638;51.062;5.804;2024-02-23T15:14:12;10.20;-6.00
66726;HTU21D;53638;51.062;5.804;2024-02-23T15:16:41;10.26;-6.00
66726;HTU21D;53638;51.062;5.804;2024-02-23T15:19:07;10.60;-6.00
66726;HTU21D;53638;51.062;5.804;2024-02-23T15:21:33;10.85;-6.00
66726;HTU21D;53638;51.062;5.804;2024-02-23T15:24:08;11.08;-6.00
66726;HTU21D;53638;51.062;5.804;2024-02-23T15:26:34;11.09;-6.00
66726;HTU21D;53638;51.062;5.804;2024-02-23T15:29:15;10.92;-6.00